sensor_id;sensor_type;location;lat;lon;timestamp;pressure;altitude;pressure_sealevel;temperature;humidity
54806;BME280;62866;55.776;37.496;2023-04-09T00:01:39;100857.94;;;7.71;55.76
54806;BME280;62866;55.776;37.496;2023-04-09T00:04:04;100851.63;;;7.72;55.69
54806;BME280;62866;55.776;37.496;2023-04-09T00:06:30;100848.00;;;7.63;56.04
54806;BME280;62866;55.776;37.496;2023-04-09T00:08:56;100852.50;;;7.63;56.16
54806;BME280;62866;55.776;37.496;2023-04-09T00:11:24;100858.41;;;7.57;56.41
54806;BME280;62866;55.776;37.496;2023-04-09T00:13:49;100854.47;;;7.61;55.95
54806;BME280;62866;55.776;37.496;2023-04-09T00:16:15;100867.47;;;7.64;56.22
54806;BME280;62866;55.776;37.496;2023-04-09T00:18:41;100851.25;;;7.57;56.23
54806;BME280;62866;55.776;37.496;2023-04-09T00:21:06;100859.63;;;7.62;55.91
54806;BME280;62866;55.776;37.496;2023-04-09T00:23:33;100848.31;;;7.60;56.27
54806;BME280;62866;55.776;37.496;2023-04-09T00:25:59;100853.63;;;7.60;56.41
54806;BME280;62866;55.776;37.496;2023-04-09T00:28:25;100854.47;;;7.61;55.93
54806;BME280;62866;55.776;37.496;2023-04-09T00:30:50;100852.50;;;7.63;56.06
54806;BME280;62866;55.776;37.496;2023-04-09T00:33:16;100851.25;;;7.57;56.65
54806;BME280;62866;55.776;37.496;2023-04-09T00:35:41;100864.41;;;7.59;56.15
54806;BME280;62866;55.776;37.496;2023-04-09T00:38:07;100860.06;;;7.58;56.66
54806;BME280;62866;55.776;37.496;2023-04-09T00:40:32;100841.91;;;7.44;56.22
54806;BME280;62866;55.776;37.496;2023-04-09T00:42:58;100857.69;;;7.55;56.72
54806;BME280;62866;55.776;37.496;2023-04-09T00:45:23;100860.50;;;7.53;56.55
54806;BME280;62866;55.776;37.496;2023-04-09T00:47:49;100858.66;;;7.54;56.69
54806;BME280;62866;55.776;37.496;2023-04-09T00:50:15;100857.56;;;7.56;56.61
54806;BME280;62866;55.776;37.496;2023-04-09T00:52:41;100848.19;;;7.52;56.42
54806;BME280;62866;55.776;37.496;2023-04-09T00:55:08;100849.44;;;7.58;56.48
54806;BME280;62866;55.776;37.496;2023-04-09T00:57:34;100849.16;;;7.61;56.49
54806;BME280;62866;55.776;37.496;2023-04-09T01:00:00;100844.66;;;7.61;56.67
54806;BME280;62866;55.776;37.496;2023-04-09T01:02:26;100852.22;;;7.66;56.12
54806;BME280;62866;55.776;37.496;2023-04-09T01:04:51;100849.41;;;7.68;56.29
54806;BME280;62866;55.776;37.496;2023-04-09T01:10:23;100852.59;;;7.71;55.79
54806;BME280;62866;55.776;37.496;2023-04-09T01:13:17;100845.78;;;7.69;56.29
54806;BME280;62866;55.776;37.496;2023-04-09T01:15:51;100844.50;;;7.63;56.34
54806;BME280;62866;55.776;37.496;2023-04-09T01:18:56;100841.16;;;7.61;56.42
54806;BME280;62866;55.776;37.496;2023-04-09T01:21:19;100840.59;;;7.57;56.87
54806;BME280;62866;55.776;37.496;2023-04-09T01:24:09;100852.81;;;7.60;56.35
54806;BME280;62866;55.776;37.496;2023-04-09T01:27:04;100851.13;;;7.59;56.54
54806;BME280;62866;55.776;37.496;2023-04-09T01:29:33;100855.72;;;7.57;57.00
54806;BME280;62866;55.776;37.496;2023-04-09T01:32:01;100846.78;;;7.58;56.76
54806;BME280;62866;55.776;37.496;2023-04-09T01:34:28;100846.78;;;7.58;56.80
54806;BME280;62866;55.776;37.496;2023-04-09T01:36:57;100853.63;;;7.60;56.68
54806;BME280;62866;55.776;37.496;2023-04-09T01:39:24;100857.13;;;7.61;56.96
54806;BME280;62866;55.776;37.496;2023-04-09T01:41:50;100852.09;;;7.58;57.14
54806;BME280;62866;55.776;37.496;2023-04-09T01:44:18;100840.88;;;7.54;57.17
54806;BME280;62866;55.776;37.496;2023-04-09T01:46:48;100845.94;;;7.57;56.80
54806;BME280;62866;55.776;37.496;2023-04-09T01:49:15;100855.28;;;7.61;56.70
54806;BME280;62866;55.776;37.496;2023-04-09T01:51:41;100851.50;;;7.64;57.13
54806;BME280;62866;55.776;37.496;2023-04-09T01:54:07;100857.78;;;7.73;56.30
54806;BME280;62866;55.776;37.496;2023-04-09T01:56:43;100854.00;;;7.75;56.59
54806;BME280;62866;55.776;37.496;2023-04-09T01:59:09;100857.38;;;7.77;56.55
54806;BME280;62866;55.776;37.496;2023-04-09T02:01:44;100863.38;;;7.79;57.27
54806;BME280;62866;55.776;37.496;2023-04-09T02:04:32;100855.69;;;7.76;56.73
54806;BME280;62866;55.776;37.496;2023-04-09T02:09:39;100846.31;;;7.72;57.03
54806;BME280;62866;55.776;37.496;2023-04-09T02:12:10;100857.78;;;7.73;57.00
54806;BME280;62866;55.776;37.496;2023-04-09T02:14:36;100862.00;;;7.75;56.95
54806;BME280;62866;55.776;37.496;2023-04-09T02:17:03;100851.50;;;7.74;57.20
54806;BME280;62866;55.776;37.496;2023-04-09T02:19:45;100853.31;;;7.73;57.11
54806;BME280;62866;55.776;37.496;2023-04-09T02:22:11;100854.16;;;7.74;57.25
54806;BME280;62866;55.776;37.496;2023-04-09T02:24:37;100854.84;;;7.76;57.19
54806;BME280;62866;55.776;37.496;2023-04-09T02:27:04;100850.66;;;7.73;57.56
54806;BME280;62866;55.776;37.496;2023-04-09T02:29:30;100853.31;;;7.73;57.40
54806;BME280;62866;55.776;37.496;2023-04-09T02:31:56;100853.31;;;7.73;57.38
54806;BME280;62866;55.776;37.496;2023-04-09T02:34:22;100848.00;;;7.73;57.36
54806;BME280;62866;55.776;37.496;2023-04-09T02:36:48;100850.38;;;7.76;56.95
54806;BME280;62866;55.776;37.496;2023-04-09T02:39:13;100842.66;;;7.73;57.21
54806;BME280;62866;55.776;37.496;2023-04-09T02:41:38;100854.41;;;7.80;56.98
54806;BME280;62866;55.776;37.496;2023-04-09T02:44:04;100859.47;;;7.83;57.30
54806;BME280;62866;55.776;37.496;2023-04-09T02:46:30;100853.00;;;7.86;57.29
54806;BME280;62866;55.776;37.496;2023-04-09T02:48:55;100846.16;;;7.83;57.38
54806;BME280;62866;55.776;37.496;2023-04-09T02:51:21;100842.50;;;7.84;57.27
54806;BME280;62866;55.776;37.496;2023-04-09T02:53:46;100848.94;;;7.82;57.53
54806;BME280;62866;55.776;37.496;2023-04-09T02:56:12;100850.22;;;7.78;57.55
54806;BME280;62866;55.776;37.496;2023-04-09T02:58:38;100845.47;;;7.72;57.96
54806;BME280;62866;55.776;37.496;2023-04-09T03:01:04;100843.50;;;7.74;57.83
54806;BME280;62866;55.776;37.496;2023-04-09T03:03:29;100852.19;;;7.76;57.82
54806;BME280;62866;55.776;37.496;2023-04-09T03:05:55;100851.06;;;7.78;57.84
54806;BME280;62866;55.776;37.496;2023-04-09T03:08:21;100854.13;;;7.83;57.83
54806;BME280;62866;55.776;37.496;2023-04-09T03:10:47;100854.66;;;7.87;57.57
54806;BME280;62866;55.776;37.496;2023-04-09T03:13:12;100850.91;;;7.80;57.85
54806;BME280;62866;55.776;37.496;2023-04-09T03:15:38;100860.16;;;7.85;57.84
54806;BME280;62866;55.776;37.496;2023-04-09T03:18:03;100859.59;;;7.82;58.02
54806;BME280;62866;55.776;37.496;2023-04-09T03:20:29;100850.06;;;7.79;57.68
54806;BME280;62866;55.776;37.496;2023-04-09T03:22:55;100868.56;;;7.81;58.42
54806;BME280;62866;55.776;37.496;2023-04-09T03:25:21;100848.69;;;7.75;58.57
54806;BME280;62866;55.776;37.496;2023-04-09T03:27:47;100853.56;;;7.80;58.28
54806;BME280;62866;55.776;37.496;2023-04-09T03:30:13;100850.06;;;7.79;58.47
54806;BME280;62866;55.776;37.496;2023-04-09T03:32:38;100851.47;;;7.83;58.96
54806;BME280;62866;55.776;37.496;2023-04-09T03:35:04;100861.94;;;7.94;58.59
54806;BME280;62866;55.776;37.496;2023-04-09T03:37:30;100857.41;;;8.05;58.24
54806;BME280;62866;55.776;37.496;2023-04-09T03:39:55;100866.34;;;8.13;58.06
54806;BME280;62866;55.776;37.496;2023-04-09T03:42:21;100858.78;;;8.18;57.67
54806;BME280;62866;55.776;37.496;2023-04-09T03:44:46;100853.41;;;8.28;57.56
54806;BME280;62866;55.776;37.496;2023-04-09T03:47:12;100853.22;;;8.29;57.69
54806;BME280;62866;55.776;37.496;2023-04-09T03:49:38;100855.34;;;8.35;57.71
54806;BME280;62866;55.776;37.496;2023-04-09T03:52:05;100859.38;;;8.40;57.71
54806;BME280;62866;55.776;37.496;2023-04-09T03:54:31;100860.63;;;8.45;57.36
54806;BME280;62866;55.776;37.496;2023-04-09T03:56:56;100857.38;;;8.51;57.27
54806;BME280;62866;55.776;37.496;2023-04-09T03:59:22;100861.66;;;8.62;56.87
54806;BME280;62866;55.776;37.496;2023-04-09T04:01:48;100846.03;;;8.67;56.72
54806;BME280;62866;55.776;37.496;2023-04-09T04:04:13;100866.22;;;8.87;56.47
54806;BME280;62866;55.776;37.496;2023-04-09T04:06:39;100854.66;;;8.96;56.16
54806;BME280;62866;55.776;37.496;2023-04-09T04:09:05;100859.63;;;9.09;55.60
54806;BME280;62866;55.776;37.496;2023-04-09T04:11:30;100855.34;;;9.16;55.69
54806;BME280;62866;55.776;37.496;2023-04-09T04:13:56;100834.94;;;9.07;55.37
54806;BME280;62866;55.776;37.496;2023-04-09T04:16:22;100855.56;;;9.23;55.31
54806;BME280;62866;55.776;37.496;2023-04-09T04:18:48;100843.22;;;9.22;54.98
54806;BME280;62866;55.776;37.496;2023-04-09T04:21:14;100852.69;;;9.34;55.01
54806;BME280;62866;55.776;37.496;2023-04-09T04:23:40;100852.88;;;9.40;54.75
54806;BME280;62866;55.776;37.496;2023-04-09T04:26:07;100854.63;;;9.49;54.36
54806;BME280;62866;55.776;37.496;2023-04-09T04:28:34;100844.50;;;9.53;54.20
54806;BME280;62866;55.776;37.496;2023-04-09T04:31:00;100851.44;;;9.72;54.04
54806;BME280;62866;55.776;37.496;2023-04-09T04:33:26;100847.81;;;9.81;53.70
54806;BME280;62866;55.776;37.496;2023-04-09T04:35:52;100844.91;;;9.92;53.54
54806;BME280;62866;55.776;37.496;2023-04-09T04:38:17;100847.13;;;10.05;52.97
54806;BME280;62866;55.776;37.496;2023-04-09T04:40:43;100849.03;;;10.12;52.74
54806;BME280;62866;55.776;37.496;2023-04-09T04:43:08;100840.66;;;10.15;52.46
54806;BME280;62866;55.776;37.496;2023-04-09T04:45:34;100840.03;;;10.21;52.27
54806;BME280;62866;55.776;37.496;2023-04-09T04:47:59;100829.28;;;10.13;52.31
54806;BME280;62866;55.776;37.496;2023-04-09T04:50:25;100848.41;;;10.18;52.49
54806;BME280;62866;55.776;37.496;2023-04-09T04:52:50;100839.97;;;10.13;52.54
54806;BME280;62866;55.776;37.496;2023-04-09T04:55:16;100847.00;;;10.14;52.33
54806;BME280;62866;55.776;37.496;2023-04-09T04:57:42;100833.13;;;10.11;52.42
54806;BME280;62866;55.776;37.496;2023-04-09T05:00:07;100841.63;;;10.06;52.46
54806;BME280;62866;55.776;37.496;2023-04-09T05:02:33;100854.38;;;10.12;52.84
54806;BME280;62866;55.776;37.496;2023-04-09T05:04:59;100851.91;;;10.19;52.46
54806;BME280;62866;55.776;37.496;2023-04-09T05:07:24;100844.97;;;10.34;52.27
54806;BME280;62866;55.776;37.496;2023-04-09T05:09:50;100846.66;;;10.43;52.17
54806;BME280;62866;55.776;37.496;2023-04-09T05:12:16;100849.38;;;10.51;51.77
54806;BME280;62866;55.776;37.496;2023-04-09T05:14:42;100849.56;;;10.58;52.07
54806;BME280;62866;55.776;37.496;2023-04-09T05:17:08;100855.28;;;10.71;51.65
54806;BME280;62866;55.776;37.496;2023-04-09T05:19:34;100850.75;;;10.80;51.16
54806;BME280;62866;55.776;37.496;2023-04-09T05:21:59;100842.75;;;10.80;51.27
54806;BME280;62866;55.776;37.496;2023-04-09T05:24:25;100842.75;;;10.80;51.24
54806;BME280;62866;55.776;37.496;2023-04-09T05:26:51;100841.56;;;10.82;51.08
54806;BME280;62866;55.776;37.496;2023-04-09T05:29:16;100830.88;;;10.82;50.73
54806;BME280;62866;55.776;37.496;2023-04-09T05:31:42;100843.28;;;10.99;50.52
54806;BME280;62866;55.776;37.496;2023-04-09T05:34:07;100846.81;;;11.16;50.54
54806;BME280;62866;55.776;37.496;2023-04-09T05:36:33;100851.69;;;11.37;50.05
54806;BME280;62866;55.776;37.496;2023-04-09T05:38:58;100855.03;;;11.80;49.17
54806;BME280;62866;55.776;37.496;2023-04-09T05:41:24;100853.94;;;11.97;48.73
54806;BME280;62866;55.776;37.496;2023-04-09T05:43:50;100859.50;;;11.95;48.50
54806;BME280;62866;55.776;37.496;2023-04-09T05:46:15;100866.38;;;11.82;49.80
54806;BME280;62866;55.776;37.496;2023-04-09T05:48:41;100860.53;;;11.86;49.63
54806;BME280;62866;55.776;37.496;2023-04-09T05:51:06;100869.38;;;12.03;49.46
54806;BME280;62866;55.776;37.496;2023-04-09T05:53:33;100870.81;;;12.13;49.34
54806;BME280;62866;55.776;37.496;2023-04-09T05:55:59;100867.16;;;12.53;48.61
54806;BME280;62866;55.776;37.496;2023-04-09T05:58:27;100872.53;;;12.84;47.43
54806;BME280;62866;55.776;37.496;2023-04-09T06:00:52;100862.19;;;13.04;46.69
54806;BME280;62866;55.776;37.496;2023-04-09T06:03:18;100854.03;;;12.89;46.62
54806;BME280;62866;55.776;37.496;2023-04-09T06:05:44;100868.50;;;12.88;46.64
54806;BME280;62866;55.776;37.496;2023-04-09T06:08:13;100870.84;;;13.14;46.13
54806;BME280;62866;55.776;37.496;2023-04-09T06:10:39;100860.09;;;13.14;45.95
54806;BME280;62866;55.776;37.496;2023-04-09T06:13:04;100869.13;;;13.21;46.06
54806;BME280;62866;55.776;37.496;2023-04-09T06:15:30;100868.38;;;14.32;43.92
54806;BME280;62866;55.776;37.496;2023-04-09T06:17:56;100861.44;;;14.52;43.80
54806;BME280;62866;55.776;37.496;2023-04-09T06:20:21;100854.84;;;14.11;43.87
54806;BME280;62866;55.776;37.496;2023-04-09T06:22:47;100873.31;;;14.14;44.02
54806;BME280;62866;55.776;37.496;2023-04-09T06:25:15;100878.31;;;14.02;44.12
54806;BME280;62866;55.776;37.496;2023-04-09T06:27:41;100859.84;;;14.58;43.06
54806;BME280;62866;55.776;37.496;2023-04-09T06:30:07;100876.97;;;14.86;42.60
54806;BME280;62866;55.776;37.496;2023-04-09T06:32:33;100882.28;;;15.01;42.35
54806;BME280;62866;55.776;37.496;2023-04-09T06:34:58;100883.72;;;14.97;42.15
54806;BME280;62866;55.776;37.496;2023-04-09T06:37:24;100875.28;;;14.85;42.21
54806;BME280;62866;55.776;37.496;2023-04-09T06:39:49;100882.09;;;15.02;42.39
54806;BME280;62866;55.776;37.496;2023-04-09T06:42:15;100878.59;;;15.02;41.66
54806;BME280;62866;55.776;37.496;2023-04-09T06:44:40;100875.22;;;15.14;41.88
54806;BME280;62866;55.776;37.496;2023-04-09T06:47:06;100875.66;;;15.61;41.23
54806;BME280;62866;55.776;37.496;2023-04-09T06:49:33;100881.91;;;16.23;40.79
54806;BME280;62866;55.776;37.496;2023-04-09T06:51:58;100876.56;;;16.71;39.59
54806;BME280;62866;55.776;37.496;2023-04-09T06:54:24;100882.13;;;17.30;38.68
54806;BME280;62866;55.776;37.496;2023-04-09T06:56:49;100882.59;;;17.73;38.32
54806;BME280;62866;55.776;37.496;2023-04-09T06:59:16;100885.09;;;17.68;38.19
54806;BME280;62866;55.776;37.496;2023-04-09T07:01:41;100879.47;;;17.90;38.17
54806;BME280;62866;55.776;37.496;2023-04-09T07:04:07;100887.97;;;18.06;38.40
54806;BME280;62866;55.776;37.496;2023-04-09T07:06:35;100884.25;;;18.07;38.67
54806;BME280;62866;55.776;37.496;2023-04-09T07:09:01;100878.81;;;18.01;39.29
54806;BME280;62866;55.776;37.496;2023-04-09T07:11:27;100868.91;;;19.04;37.63
54806;BME280;62866;55.776;37.496;2023-04-09T07:13:52;100877.13;;;20.76;35.90
54806;BME280;62866;55.776;37.496;2023-04-09T07:16:24;100879.63;;;22.02;34.10
54806;BME280;62866;55.776;37.496;2023-04-09T07:18:49;100876.09;;;24.17;31.51
54806;BME280;62866;55.776;37.496;2023-04-09T07:21:15;100863.59;;;25.35;29.05
54806;BME280;62866;55.776;37.496;2023-04-09T07:23:41;100873.09;;;25.91;27.67
54806;BME280;62866;55.776;37.496;2023-04-09T07:26:06;100870.75;;;25.68;26.65
54806;BME280;62866;55.776;37.496;2023-04-09T07:28:32;100880.59;;;24.45;26.86
54806;BME280;62866;55.776;37.496;2023-04-09T07:31:01;100879.72;;;22.94;28.59
54806;BME280;62866;55.776;37.496;2023-04-09T07:33:29;100885.09;;;22.25;29.77
54806;BME280;62866;55.776;37.496;2023-04-09T07:35:55;100880.06;;;22.46;29.65
54806;BME280;62866;55.776;37.496;2023-04-09T07:38:21;100887.94;;;22.82;29.30
54806;BME280;62866;55.776;37.496;2023-04-09T07:40:46;100880.25;;;23.69;29.01
54806;BME280;62866;55.776;37.496;2023-04-09T07:43:12;100885.69;;;24.03;27.56
54806;BME280;62866;55.776;37.496;2023-04-09T07:45:41;100876.94;;;23.05;28.43
54806;BME280;62866;55.776;37.496;2023-04-09T07:48:06;100878.91;;;22.18;29.11
54806;BME280;62866;55.776;37.496;2023-04-09T07:50:33;100887.03;;;21.60;29.57
54806;BME280;62866;55.776;37.496;2023-04-09T07:52:59;100886.41;;;22.00;29.88
54806;BME280;62866;55.776;37.496;2023-04-09T07:55:24;100880.56;;;22.31;30.01
54806;BME280;62866;55.776;37.496;2023-04-09T07:57:50;100862.81;;;22.17;30.58
54806;BME280;62866;55.776;37.496;2023-04-09T08:00:16;100876.78;;;22.20;30.60
54806;BME280;62866;55.776;37.496;2023-04-09T08:02:42;100880.47;;;22.14;30.34
54806;BME280;62866;55.776;37.496;2023-04-09T08:05:10;100879.63;;;22.89;28.99
54806;BME280;62866;55.776;37.496;2023-04-09T08:07:36;100869.06;;;24.04;27.35
54806;BME280;62866;55.776;37.496;2023-04-09T08:10:01;100874.28;;;25.10;27.09
54806;BME280;62866;55.776;37.496;2023-04-09T08:12:27;100852.75;;;26.24;25.54
54806;BME280;62866;55.776;37.496;2023-04-09T08:14:53;100866.66;;;26.13;24.31
54806;BME280;62866;55.776;37.496;2023-04-09T08:17:18;100860.41;;;25.16;25.53
54806;BME280;62866;55.776;37.496;2023-04-09T08:19:44;100860.88;;;25.40;26.00
54806;BME280;62866;55.776;37.496;2023-04-09T08:22:12;100862.09;;;25.86;25.46
54806;BME280;62866;55.776;37.496;2023-04-09T08:24:38;100861.38;;;25.59;25.85
54806;BME280;62866;55.776;37.496;2023-04-09T08:27:07;100862.28;;;25.43;25.94
54806;BME280;62866;55.776;37.496;2023-04-09T08:29:32;100850.00;;;24.70;25.88
54806;BME280;62866;55.776;37.496;2023-04-09T08:31:58;100857.41;;;25.50;25.63
54806;BME280;62866;55.776;37.496;2023-04-09T08:34:24;100863.66;;;26.61;24.46
54806;BME280;62866;55.776;37.496;2023-04-09T08:36:52;100858.22;;;26.19;24.36
54806;BME280;62866;55.776;37.496;2023-04-09T08:39:18;100859.25;;;26.60;23.59
54806;BME280;62866;55.776;37.496;2023-04-09T08:41:45;100855.59;;;26.39;23.77
54806;BME280;62866;55.776;37.496;2023-04-09T08:44:11;100853.44;;;26.47;24.33
54806;BME280;62866;55.776;37.496;2023-04-09T08:46:37;100848.41;;;26.91;24.24
54806;BME280;62866;55.776;37.496;2023-04-09T08:49:03;100850.81;;;26.77;23.89
54806;BME280;62866;55.776;37.496;2023-04-09T08:51:28;100851.78;;;25.61;24.89
54806;BME280;62866;55.776;37.496;2023-04-09T08:53:58;100849.53;;;24.51;25.84
54806;BME280;62866;55.776;37.496;2023-04-09T08:56:24;100853.00;;;25.44;25.10
54806;BME280;62866;55.776;37.496;2023-04-09T08:58:51;100848.53;;;25.69;24.22
54806;BME280;62866;55.776;37.496;2023-04-09T09:01:25;100846.34;;;26.08;24.46
54806;BME280;62866;55.776;37.496;2023-04-09T09:04:07;100847.84;;;25.84;25.46
54806;BME280;62866;55.776;37.496;2023-04-09T09:06:35;100840.69;;;25.19;25.04
54806;BME280;62866;55.776;37.496;2023-04-09T09:09:14;100849.13;;;25.72;24.50
54806;BME280;62866;55.776;37.496;2023-04-09T09:11:45;100843.25;;;24.77;25.70
54806;BME280;62866;55.776;37.496;2023-04-09T09:14:15;100839.50;;;24.62;25.72
54806;BME280;62866;55.776;37.496;2023-04-09T09:16:43;100844.13;;;24.34;26.68
54806;BME280;62866;55.776;37.496;2023-04-09T09:19:27;100840.06;;;23.81;25.95
54806;BME280;62866;55.776;37.496;2023-04-09T09:22:04;100847.88;;;21.84;27.88
54806;BME280;62866;55.776;37.496;2023-04-09T09:24:31;100843.34;;;19.99;29.92
54806;BME280;62866;55.776;37.496;2023-04-09T09:26:58;100839.25;;;18.71;31.75
54806;BME280;62866;55.776;37.496;2023-04-09T09:29:24;100833.69;;;17.88;33.39
54806;BME280;62866;55.776;37.496;2023-04-09T09:31:54;100846.00;;;17.64;34.08
54806;BME280;62866;55.776;37.496;2023-04-09T09:34:22;100827.66;;;17.53;33.89
54806;BME280;62866;55.776;37.496;2023-04-09T09:36:48;100818.91;;;17.44;33.92
54806;BME280;62866;55.776;37.496;2023-04-09T09:39:15;100834.09;;;17.39;33.84
54806;BME280;62866;55.776;37.496;2023-04-09T09:41:43;100822.84;;;17.42;34.11
54806;BME280;62866;55.776;37.496;2023-04-09T09:44:10;100827.44;;;17.28;34.31
54806;BME280;62866;55.776;37.496;2023-04-09T09:46:38;100825.13;;;17.05;34.94
54806;BME280;62866;55.776;37.496;2023-04-09T09:49:05;100822.63;;;17.04;34.76
54806;BME280;62866;55.776;37.496;2023-04-09T09:51:32;100821.34;;;16.87;35.16
54806;BME280;62866;55.776;37.496;2023-04-09T09:53:59;100822.56;;;16.71;35.22
54806;BME280;62866;55.776;37.496;2023-04-09T09:56:30;100797.50;;;16.43;35.63
54806;BME280;62866;55.776;37.496;2023-04-09T10:01:45;100825.13;;;16.04;36.55
54806;BME280;62866;55.776;37.496;2023-04-09T10:04:13;100810.75;;;15.90;37.00
54806;BME280;62866;55.776;37.496;2023-04-09T10:06:42;100813.03;;;15.93;36.69
54806;BME280;62866;55.776;37.496;2023-04-09T10:09:08;100819.38;;;15.79;36.89
54806;BME280;62866;55.776;37.496;2023-04-09T10:11:35;100827.53;;;15.92;36.90
54806;BME280;62866;55.776;37.496;2023-04-09T10:14:01;100820.91;;;16.29;36.82
54806;BME280;62866;55.776;37.496;2023-04-09T10:16:28;100819.34;;;16.48;36.12
54806;BME280;62866;55.776;37.496;2023-04-09T10:18:54;100817.69;;;16.60;35.99
54806;BME280;62866;55.776;37.496;2023-04-09T10:21:49;100815.31;;;16.78;35.93
54806;BME280;62866;55.776;37.496;2023-04-09T10:24:18;100802.69;;;17.12;35.77
54806;BME280;62866;55.776;37.496;2023-04-09T10:26:44;100816.00;;;17.59;35.20
54806;BME280;62866;55.776;37.496;2023-04-09T10:29:15;100809.72;;;17.92;34.83
54806;BME280;62866;55.776;37.496;2023-04-09T10:34:19;100813.94;;;17.48;35.21
54806;BME280;62866;55.776;37.496;2023-04-09T10:36:49;100813.31;;;17.46;35.44
54806;BME280;62866;55.776;37.496;2023-04-09T10:39:17;100813.06;;;17.41;34.92
54806;BME280;62866;55.776;37.496;2023-04-09T10:41:43;100806.44;;;17.43;34.63
54806;BME280;62866;55.776;37.496;2023-04-09T10:44:29;100813.53;;;17.64;35.10
54806;BME280;62866;55.776;37.496;2023-04-09T10:46:59;100806.63;;;17.42;35.40
54806;BME280;62866;55.776;37.496;2023-04-09T10:49:25;100814.34;;;17.45;35.38
54806;BME280;62866;55.776;37.496;2023-04-09T10:52:02;100813.72;;;17.56;35.27
54806;BME280;62866;55.776;37.496;2023-04-09T10:57:18;100812.25;;;17.60;35.06
54806;BME280;62866;55.776;37.496;2023-04-09T10:59:50;100816.00;;;17.39;35.47
54806;BME280;62866;55.776;37.496;2023-04-09T11:07:25;100801.84;;;16.98;35.85
54806;BME280;62866;55.776;37.496;2023-04-09T11:09:52;100804.31;;;16.86;35.84
54806;BME280;62866;55.776;37.496;2023-04-09T11:12:17;100809.25;;;16.69;36.18
54806;BME280;62866;55.776;37.496;2023-04-09T11:14:43;100792.56;;;16.53;36.31
54806;BME280;62866;55.776;37.496;2023-04-09T11:17:08;100805.28;;;16.65;35.86
54806;BME280;62866;55.776;37.496;2023-04-09T11:19:35;100802.31;;;16.47;36.58
54806;BME280;62866;55.776;37.496;2023-04-09T11:22:03;100801.50;;;16.60;36.41
54806;BME280;62866;55.776;37.496;2023-04-09T11:24:43;100803.41;;;16.66;36.26
54806;BME280;62866;55.776;37.496;2023-04-09T11:27:13;100793.03;;;16.63;36.10
54806;BME280;62866;55.776;37.496;2023-04-09T11:29:38;100797.19;;;16.65;36.12
54806;BME280;62866;55.776;37.496;2023-04-09T11:32:04;100797.97;;;16.59;36.08
54806;BME280;62866;55.776;37.496;2023-04-09T11:34:33;100800.03;;;16.51;35.95
54806;BME280;62866;55.776;37.496;2023-04-09T11:36:58;100787.91;;;16.33;36.04
54806;BME280;62866;55.776;37.496;2023-04-09T11:39:29;100783.06;;;16.16;36.23
54806;BME280;62866;55.776;37.496;2023-04-09T11:41:55;100791.28;;;16.01;36.62
54806;BME280;62866;55.776;37.496;2023-04-09T11:44:22;100786.47;;;15.90;36.56
54806;BME280;62866;55.776;37.496;2023-04-09T11:46:47;100784.81;;;15.89;36.83
54806;BME280;62866;55.776;37.496;2023-04-09T11:49:15;100777.31;;;15.91;37.20
54806;BME280;62866;55.776;37.496;2023-04-09T11:51:44;100791.53;;;16.06;37.11
54806;BME280;62866;55.776;37.496;2023-04-09T11:54:10;100783.28;;;16.14;36.61
54806;BME280;62866;55.776;37.496;2023-04-09T11:56:36;100779.97;;;16.19;36.82
54806;BME280;62866;55.776;37.496;2023-04-09T11:59:02;100781.28;;;16.36;36.86
54806;BME280;62866;55.776;37.496;2023-04-09T12:01:32;100778.03;;;16.54;36.56
54806;BME280;62866;55.776;37.496;2023-04-09T12:03:58;100791.63;;;16.87;35.90
54806;BME280;62866;55.776;37.496;2023-04-09T12:06:25;100783.34;;;17.08;35.55
54806;BME280;62866;55.776;37.496;2023-04-09T12:09:00;100782.13;;;17.24;35.61
54806;BME280;62866;55.776;37.496;2023-04-09T12:11:30;100781.69;;;17.27;35.23
54806;BME280;62866;55.776;37.496;2023-04-09T12:14:02;100781.06;;;17.05;35.73
54806;BME280;62866;55.776;37.496;2023-04-09T12:16:33;100774.59;;;16.99;36.00
54806;BME280;62866;55.776;37.496;2023-04-09T12:19:05;100769.63;;;16.96;35.98
54806;BME280;62866;55.776;37.496;2023-04-09T12:24:12;100772.63;;;16.60;36.03
54806;BME280;62866;55.776;37.496;2023-04-09T12:26:38;100761.44;;;16.57;36.27
54806;BME280;62866;55.776;37.496;2023-04-09T12:29:03;100757.84;;;16.50;36.45
54806;BME280;62866;55.776;37.496;2023-04-09T12:31:29;100769.91;;;16.47;36.80
54806;BME280;62866;55.776;37.496;2023-04-09T12:33:54;100770.28;;;16.38;36.63
54806;BME280;62866;55.776;37.496;2023-04-09T12:36:20;100749.25;;;16.13;36.69
54806;BME280;62866;55.776;37.496;2023-04-09T12:38:48;100768.72;;;16.09;36.87
54806;BME280;62866;55.776;37.496;2023-04-09T12:41:14;100762.75;;;15.79;36.83
54806;BME280;62866;55.776;37.496;2023-04-09T12:43:40;100767.84;;;15.67;37.32
54806;BME280;62866;55.776;37.496;2023-04-09T12:46:07;100774.91;;;15.68;37.20
54806;BME280;62866;55.776;37.496;2023-04-09T12:48:35;100777.13;;;15.58;37.29
54806;BME280;62866;55.776;37.496;2023-04-09T12:51:00;100770.81;;;15.51;37.46
54806;BME280;62866;55.776;37.496;2023-04-09T12:53:26;100767.59;;;15.55;37.72
54806;BME280;62866;55.776;37.496;2023-04-09T12:55:55;100773.03;;;15.62;37.05
54806;BME280;62866;55.776;37.496;2023-04-09T12:58:21;100763.97;;;15.48;37.53
54806;BME280;62866;55.776;37.496;2023-04-09T13:00:46;100757.22;;;15.59;37.12
54806;BME280;62866;55.776;37.496;2023-04-09T13:03:15;100764.63;;;15.78;36.65
54806;BME280;62866;55.776;37.496;2023-04-09T13:05:41;100761.38;;;15.89;36.68